Elke K — PBES — position and weather

sailwx.info

Track history (hours):
 
Tides and Currents Weather Stations Pressure Air Temp Water Temp Dewpoint Dewpoint Depression Visibility Wind Speed Wind Dir Waves Ship Positions

Elke K

Last reported at 2018-Jun-20 06:09 UTC. Time now 2018-Jun-22 09:29 UTC.
Position N 39°41' W 009°50'.

Length 88 m; draft 5.6 m.

Type: Cargo ship. MMSI: 246180000.

Date/timePositionNaut miles runAvg speedWind from/ knotsBaromVisibWave heightAir tempDewpointWater temp
2018-Jun-20 06:09N 39°41' W 009°50'9 9.6
2018-Jun-20 05:11N 39°32' W 009°50'2 9.6
2018-Jun-20 05:00N 39°30' W 009°50'5 9.5
2018-Jun-20 04:30N 39°25' W 009°50'5 9.4
2018-Jun-20 04:00N 39°20' W 009°51'5 9.7
2018-Jun-20 03:30N 39°16' W 009°51'5 9.4
2018-Jun-20 03:00N 39°11' W 009°51'5 9.6
2018-Jun-20 02:30N 39°06' W 009°51'5 9.5
2018-Jun-20 02:00N 39°01' W 009°51'4 9.0
2018-Jun-20 01:30N 38°57' W 009°52'4 8.9
2018-Jun-20 01:00N 38°52' W 009°51'5 9.1
2018-Jun-20 00:30N 38°48' W 009°51'5 9.1
2018-Jun-20 00:00N 38°43' W 009°51'4 8.8
2018-Jun-19 23:30N 38°39' W 009°50'4 8.5
2018-Jun-19 23:00N 38°35' W 009°49'4 8.8
2018-Jun-19 22:30N 38°30' W 009°48'4 8.5
2018-Jun-19 22:00N 38°26' W 009°46'5 8.5
2018-Jun-19 21:24N 38°21' W 009°45'5 8.7
2018-Jun-19 20:50N 38°17' W 009°43'3 8.7
2018-Jun-19 20:29N 38°14' W 009°42'5 9.0
2018-Jun-19 19:57N 38°09' W 009°41'4 9.0
2018-Jun-19 19:30N 38°05' W 009°40'5 9.2
2018-Jun-19 19:00N 38°01' W 009°38'6 9.5
2018-Jun-19 18:19N 37°54' W 009°37'3 9.5
2018-Jun-19 17:59N 37°51' W 009°36'5 9.5
2018-Jun-19 17:30N 37°47' W 009°35'7 9.3
2018-Jun-19 16:44N 37°40' W 009°32'46 9.6
2018-Jun-19 11:54N 36°55' W 009°19'4 9.2
2018-Jun-19 11:29N 36°51' W 009°16'14 8.9
2018-Jun-19 09:58N 36°44' W 009°02'9 9.1
2018-Jun-19 09:01N 36°41' W 008°52'0 9.0
2018-Jun-19 08:59N 36°41' W 008°52'166 9.5
2018-Jun-18 15:26N 35°59' W 005°32'4 9.1
2018-Jun-18 14:59N 36°00' W 005°27'4 8.8
2018-Jun-18 14:31N 36°02' W 005°22'4 8.7
2018-Jun-18 14:00N 36°04' W 005°17'205 9.2
2018-Jun-17 15:46N 37°06' W 001°14'510.1
2018-Jun-17 15:18N 37°09' W 001°10'4 9.9
2018-Jun-17 14:55N 37°11' W 001°06'4 9.9
2018-Jun-17 14:30N 37°14' W 001°03'5 9.8
2018-Jun-17 13:59N 37°18' W 000°58'5 9.9
2018-Jun-17 13:30N 37°21' W 000°53'5 9.9
2018-Jun-17 12:59N 37°24' W 000°48'510.2
2018-Jun-17 12:31N 37°27' W 000°44'510.3
2018-Jun-17 12:00N 37°31' W 000°39'510.4
2018-Jun-17 11:30N 37°34' W 000°34'510.4
2018-Jun-17 11:00N 37°38' W 000°30'510.4
2018-Jun-17 10:30N 37°43' W 000°27'810.2
2018-Jun-17 09:44N 37°49' W 000°21'310.2
2018-Jun-17 09:29N 37°52' W 000°19'510.0
2018-Jun-17 09:00N 37°56' W 000°16'5 9.7
2018-Jun-17 08:30N 37°60' W 000°13'5 9.7
2018-Jun-17 08:00N 38°04' W 000°09'610.0
2018-Jun-17 07:23N 38°09' W 000°05'410.1
2018-Jun-17 06:59N 38°12' W 000°02'510.1
2018-Jun-17 06:28N 38°17' E 000°01'510.2
2018-Jun-17 06:00N 38°21' E 000°05'510.4
2018-Jun-17 05:30N 38°25' E 000°08'510.4
2018-Jun-17 05:00N 38°29' E 000°12'510.3
2018-Jun-17 04:30N 38°33' E 000°16'510.5
2018-Jun-17 04:00N 38°38' E 000°19'510.5
2018-Jun-17 03:30N 38°42' E 000°23'510.3
2018-Jun-17 03:00N 38°46' E 000°27'610.3
2018-Jun-17 02:24N 38°51' E 000°32'410.5
2018-Jun-17 02:00N 38°55' E 000°35'710.4
2018-Jun-17 01:21N 38°60' E 000°40'710.4
2018-Jun-17 00:39N 39°05' E 000°46'210.4
2018-Jun-17 00:30N 39°07' E 000°48'810.4
2018-Jun-16 23:44N 39°13' E 000°54'310.3
2018-Jun-16 23:24N 39°15' E 000°57'410.3
2018-Jun-16 22:59N 39°19' E 001°01'510.2
2018-Jun-16 22:30N 39°23' E 001°04'1010.4
2018-Jun-16 21:34N 39°30' E 001°12'210.2
2018-Jun-16 21:25N 39°32' E 001°13'15 9.7
2018-Jun-16 19:54N 39°43' E 001°25'4 9.1
2018-Jun-16 19:27N 39°47' E 001°28'31 9.3
2018-Jun-16 16:07N 40°11' E 001°54'1 9.7
2018-Jun-16 16:00N 40°12' E 001°54'22210.0
2018-Jun-15 17:41N 43°11' E 004°51'3 9.2
2018-Jun-15 17:20N 43°14' E 004°54'3 9.2
2018-Jun-15 17:00N 43°16' E 004°56'5 9.0
2018-Jun-15 16:30N 43°20' E 004°58'4 8.2
2018-Jun-15 16:01N 43°24' E 004°60'1 2.0
2018-Jun-15 15:30N 43°24' E 005°01'0 0.0
2018-Jun-15 14:56N 43°24' E 005°01'0 0.0
2018-Jun-15 14:29N 43°24' E 005°01'0 0.0
2018-Jun-15 13:56N 43°24' E 005°01'0 0.0
2018-Jun-15 13:29N 43°24' E 005°01'0 0.0
2018-Jun-15 12:59N 43°24' E 005°01'0 0.0
2018-Jun-15 12:29N 43°24' E 005°01'0 0.0
2018-Jun-15 11:59N 43°24' E 005°01'0 0.0
2018-Jun-15 11:29N 43°24' E 005°01'0 0.0
2018-Jun-15 10:59N 43°24' E 005°01'0 0.0
2018-Jun-15 10:29N 43°24' E 005°01'0 0.0
2018-Jun-15 09:59N 43°24' E 005°01'0 0.0
2018-Jun-15 09:29N 43°24' E 005°01'0 0.0
2018-Jun-15 08:59N 43°24' E 005°01'0 0.0
2018-Jun-15 08:29N 43°24' E 005°01'0 0.0
2018-Jun-15 07:59N 43°24' E 005°01'0 0.0
2018-Jun-15 07:29N 43°24' E 005°01'0 0.0
2018-Jun-15 06:59N 43°24' E 005°01'0 0.0
2018-Jun-15 06:20N 43°24' E 005°01'0 0.0
2018-Jun-15 05:59N 43°24' E 005°01'0 0.0
2018-Jun-15 05:29N 43°24' E 005°01'0 0.0
2018-Jun-15 04:56N 43°24' E 005°01'0 0.0
2018-Jun-15 04:29N 43°24' E 005°01'0 0.0
2018-Jun-15 03:59N 43°24' E 005°01'0 0.0
2018-Jun-15 03:29N 43°24' E 005°01'0 0.0
2018-Jun-15 02:59N 43°24' E 005°01'0 0.0
2018-Jun-15 02:29N 43°24' E 005°01'0 0.0
2018-Jun-15 01:59N 43°24' E 005°01'0 0.0
2018-Jun-15 01:26N 43°24' E 005°01'0 0.0
2018-Jun-15 00:59N 43°24' E 005°01'0 0.0
2018-Jun-15 00:29N 43°24' E 005°01'0 0.0
2018-Jun-14 23:59N 43°24' E 005°01'0 0.0
2018-Jun-14 23:29N 43°24' E 005°01'0 0.0
2018-Jun-14 22:59N 43°24' E 005°01'0 0.0
2018-Jun-14 22:29N 43°24' E 005°01'0 0.0
2018-Jun-14 21:53N 43°24' E 005°01'0 0.0
2018-Jun-14 21:26N 43°24' E 005°01'0 0.0
2018-Jun-14 20:58N 43°24' E 005°01'0 0.0
2018-Jun-14 20:25N 43°24' E 005°01'0 0.0
2018-Jun-14 19:58N 43°24' E 005°01'0 0.0
2018-Jun-14 19:28N 43°24' E 005°01'0 0.0
2018-Jun-14 18:58N 43°24' E 005°01'0 0.0
2018-Jun-14 18:28N 43°24' E 005°01'0 0.0
2018-Jun-14 17:58N 43°24' E 005°01'0 0.0
2018-Jun-14 17:28N 43°24' E 005°01'0 0.0
2018-Jun-14 16:58N 43°24' E 005°01'0 0.0
2018-Jun-14 16:28N 43°24' E 005°01'0 0.0
2018-Jun-14 15:55N 43°24' E 005°01'0 0.0
2018-Jun-14 15:28N 43°24' E 005°01'0 0.0
2018-Jun-14 14:58N 43°24' E 005°01'0 0.0
2018-Jun-14 14:25N 43°24' E 005°01'0 0.0
2018-Jun-14 13:58N 43°24' E 005°01'0 0.0
2018-Jun-14 13:25N 43°24' E 005°01'0 0.0
2018-Jun-14 12:58N 43°24' E 005°01'0 0.0
2018-Jun-14 12:25N 43°24' E 005°01'0 0.0
2018-Jun-14 11:58N 43°24' E 005°01'0 0.0
2018-Jun-14 11:28N 43°24' E 005°01'0 0.0
2018-Jun-14 10:55N 43°24' E 005°01'0 0.0
2018-Jun-14 10:28N 43°24' E 005°01'0 0.0
2018-Jun-14 09:58N 43°24' E 005°01'0 0.0
2018-Jun-14 09:28N 43°24' E 005°01'0 0.0
2018-Jun-14 08:58N 43°24' E 005°01'0 0.0
2018-Jun-14 08:25N 43°24' E 005°01'0 0.0
2018-Jun-14 07:55N 43°24' E 005°01'0 0.0
2018-Jun-14 07:28N 43°24' E 005°01'0 0.0
2018-Jun-14 06:58N 43°24' E 005°01'0 0.0
2018-Jun-14 06:28N 43°24' E 005°01'0 0.0
2018-Jun-14 05:58N 43°24' E 005°01'0 0.0
2018-Jun-14 05:28N 43°24' E 005°01'0 0.0
2018-Jun-14 04:58N 43°24' E 005°01'0 0.0
2018-Jun-14 04:25N 43°24' E 005°01'0 0.0
2018-Jun-14 03:52N 43°24' E 005°01'0 0.0
2018-Jun-14 03:28N 43°24' E 005°01'0 0.0
2018-Jun-14 02:58N 43°24' E 005°01'0 0.0
2018-Jun-14 02:28N 43°24' E 005°01'0 0.0
2018-Jun-14 01:58N 43°24' E 005°01'0 0.0
2018-Jun-14 01:28N 43°24' E 005°01'0 0.0
2018-Jun-14 00:58N 43°24' E 005°01'0 0.0
2018-Jun-14 00:28N 43°24' E 005°01'0 0.0
2018-Jun-13 23:58N 43°24' E 005°01'0 0.0
2018-Jun-13 23:28N 43°24' E 005°01'0 0.0
2018-Jun-13 22:58N 43°24' E 005°01'0 0.0
2018-Jun-13 22:28N 43°24' E 005°01'0 0.0
2018-Jun-13 21:52N 43°24' E 005°01'0 0.0
2018-Jun-13 21:28N 43°24' E 005°01'0 0.0
2018-Jun-13 20:58N 43°24' E 005°01'0 0.0
2018-Jun-13 20:28N 43°24' E 005°01'0 0.0
2018-Jun-13 19:55N 43°24' E 005°01'0 0.0
2018-Jun-13 19:28N 43°24' E 005°01'0 0.0
2018-Jun-13 18:58N 43°24' E 005°01'0 0.0
2018-Jun-13 18:28N 43°24' E 005°01'0 0.0
2018-Jun-13 17:58N 43°24' E 005°01'0 0.0
2018-Jun-13 17:22N 43°24' E 005°01'0 0.0
2018-Jun-13 16:58N 43°24' E 005°01'0 0.0
2018-Jun-13 16:28N 43°24' E 005°01'0 0.0
2018-Jun-13 15:55N 43°24' E 005°01'0 0.0
2018-Jun-13 15:28N 43°24' E 005°01'0 0.0
2018-Jun-13 14:52N 43°24' E 005°01'0 0.0
2018-Jun-13 14:28N 43°24' E 005°01'0 0.0
2018-Jun-13 13:58N 43°24' E 005°01'0 0.0
2018-Jun-13 13:28N 43°24' E 005°01'0 0.0
2018-Jun-13 12:58N 43°24' E 005°01'0 0.0
2018-Jun-13 12:25N 43°24' E 005°01'0 0.0
2018-Jun-13 11:58N 43°24' E 005°01'0 0.0
2018-Jun-13 11:28N 43°24' E 005°01'0 0.0
2018-Jun-13 11:01N 43°24' E 005°01'0 0.0
2018-Jun-13 10:31N 43°24' E 005°01'0 0.0
2018-Jun-13 10:00N 43°24' E 005°01'0 0.0
2018-Jun-13 09:30N 43°24' E 005°01'0 0.0
2018-Jun-13 09:00N 43°24' E 005°01'0 0.0
2018-Jun-13 08:27N 43°24' E 005°01'0 0.0
2018-Jun-13 08:00N 43°24' E 005°01'0 0.0
2018-Jun-13 07:30N 43°24' E 005°01'0 0.0
2018-Jun-13 07:00N 43°24' E 005°01'0 0.0
2018-Jun-13 06:30N 43°24' E 005°01'0 0.0
2018-Jun-13 05:57N 43°24' E 005°01'0 0.0
2018-Jun-13 05:30N 43°24' E 005°01'0 0.0
2018-Jun-13 05:00N 43°24' E 005°01'0 0.0
2018-Jun-13 04:30N 43°24' E 005°01'0 0.0
2018-Jun-13 04:00N 43°24' E 005°01'1 2.0
2018-Jun-13 03:30N 43°24' E 004°60'4 7.2
2018-Jun-13 03:01N 43°21' E 004°59'5 9.0
2018-Jun-13 02:30N 43°16' E 005°00'6 9.2
2018-Jun-13 01:52N 43°10' E 005°01'15210.5
2018-Jun-12 11:26N 41°24' E 002°35'511.2
2018-Jun-12 11:00N 41°21' E 002°30'510.9
2018-Jun-12 10:31N 41°17' E 002°25'510.8
2018-Jun-12 10:01N 41°14' E 002°19'510.6
2018-Jun-12 09:31N 41°10' E 002°14'510.6
2018-Jun-12 09:00N 41°07' E 002°09'710.5
2018-Jun-12 08:23N 41°02' E 002°03'410.5
2018-Jun-12 07:58N 40°59' E 001°58'510.7
2018-Jun-12 07:29N 40°56' E 001°53'  
Track history (hours):
 
Tides and Currents Weather Stations Pressure Air Temp Water Temp Dewpoint Dewpoint Depression Visibility Wind Speed Wind Dir Waves Ship Positions

Elke K

Last reported at 2018-Jun-20 06:09 UTC. Time now 2018-Jun-22 09:29 UTC.
Position N 39°41' W 009°50'.

Length 88 m; draft 5.6 m.

Type: Cargo ship. MMSI: 246180000.

Date/timePositionNaut miles runAvg speedWind from/ knotsBaromVisibWave heightAir tempDewpointWater temp
2018-Jun-20 06:09N 39°41' W 009°50'9 9.6
2018-Jun-20 05:11N 39°32' W 009°50'2 9.6
2018-Jun-20 05:00N 39°30' W 009°50'5 9.5
2018-Jun-20 04:30N 39°25' W 009°50'5 9.4
2018-Jun-20 04:00N 39°20' W 009°51'5 9.7
2018-Jun-20 03:30N 39°16' W 009°51'5 9.4
2018-Jun-20 03:00N 39°11' W 009°51'5 9.6
2018-Jun-20 02:30N 39°06' W 009°51'5 9.5
2018-Jun-20 02:00N 39°01' W 009°51'4 9.0
2018-Jun-20 01:30N 38°57' W 009°52'4 8.9
2018-Jun-20 01:00N 38°52' W 009°51'5 9.1
2018-Jun-20 00:30N 38°48' W 009°51'5 9.1
2018-Jun-20 00:00N 38°43' W 009°51'4 8.8
2018-Jun-19 23:30N 38°39' W 009°50'4 8.5
2018-Jun-19 23:00N 38°35' W 009°49'4 8.8
2018-Jun-19 22:30N 38°30' W 009°48'4 8.5
2018-Jun-19 22:00N 38°26' W 009°46'5 8.5
2018-Jun-19 21:24N 38°21' W 009°45'5 8.7
2018-Jun-19 20:50N 38°17' W 009°43'3 8.7
2018-Jun-19 20:29N 38°14' W 009°42'5 9.0
2018-Jun-19 19:57N 38°09' W 009°41'4 9.0
2018-Jun-19 19:30N 38°05' W 009°40'5 9.2
2018-Jun-19 19:00N 38°01' W 009°38'6 9.5
2018-Jun-19 18:19N 37°54' W 009°37'3 9.5
2018-Jun-19 17:59N 37°51' W 009°36'5 9.5
2018-Jun-19 17:30N 37°47' W 009°35'7 9.3
2018-Jun-19 16:44N 37°40' W 009°32'46 9.6
2018-Jun-19 11:54N 36°55' W 009°19'4 9.2
2018-Jun-19 11:29N 36°51' W 009°16'14 8.9
2018-Jun-19 09:58N 36°44' W 009°02'9 9.1
2018-Jun-19 09:01N 36°41' W 008°52'0 9.0
2018-Jun-19 08:59N 36°41' W 008°52'166 9.5
2018-Jun-18 15:26N 35°59' W 005°32'4 9.1
2018-Jun-18 14:59N 36°00' W 005°27'4 8.8
2018-Jun-18 14:31N 36°02' W 005°22'4 8.7
2018-Jun-18 14:00N 36°04' W 005°17'205 9.2
2018-Jun-17 15:46N 37°06' W 001°14'510.1
2018-Jun-17 15:18N 37°09' W 001°10'4 9.9
2018-Jun-17 14:55N 37°11' W 001°06'4 9.9
2018-Jun-17 14:30N 37°14' W 001°03'5 9.8
2018-Jun-17 13:59N 37°18' W 000°58'5 9.9
2018-Jun-17 13:30N 37°21' W 000°53'5 9.9
2018-Jun-17 12:59N 37°24' W 000°48'510.2
2018-Jun-17 12:31N 37°27' W 000°44'510.3
2018-Jun-17 12:00N 37°31' W 000°39'510.4
2018-Jun-17 11:30N 37°34' W 000°34'510.4
2018-Jun-17 11:00N 37°38' W 000°30'510.4
2018-Jun-17 10:30N 37°43' W 000°27'810.2
2018-Jun-17 09:44N 37°49' W 000°21'310.2
2018-Jun-17 09:29N 37°52' W 000°19'510.0
2018-Jun-17 09:00N 37°56' W 000°16'5 9.7
2018-Jun-17 08:30N 37°60' W 000°13'5 9.7
2018-Jun-17 08:00N 38°04' W 000°09'610.0
2018-Jun-17 07:23N 38°09' W 000°05'410.1
2018-Jun-17 06:59N 38°12' W 000°02'510.1
2018-Jun-17 06:28N 38°17' E 000°01'510.2
2018-Jun-17 06:00N 38°21' E 000°05'510.4
2018-Jun-17 05:30N 38°25' E 000°08'510.4
2018-Jun-17 05:00N 38°29' E 000°12'510.3
2018-Jun-17 04:30N 38°33' E 000°16'510.5
2018-Jun-17 04:00N 38°38' E 000°19'510.5
2018-Jun-17 03:30N 38°42' E 000°23'510.3
2018-Jun-17 03:00N 38°46' E 000°27'610.3
2018-Jun-17 02:24N 38°51' E 000°32'410.5
2018-Jun-17 02:00N 38°55' E 000°35'710.4
2018-Jun-17 01:21N 38°60' E 000°40'710.4
2018-Jun-17 00:39N 39°05' E 000°46'210.4
2018-Jun-17 00:30N 39°07' E 000°48'810.4
2018-Jun-16 23:44N 39°13' E 000°54'310.3
2018-Jun-16 23:24N 39°15' E 000°57'410.3
2018-Jun-16 22:59N 39°19' E 001°01'510.2
2018-Jun-16 22:30N 39°23' E 001°04'1010.4
2018-Jun-16 21:34N 39°30' E 001°12'210.2
2018-Jun-16 21:25N 39°32' E 001°13'15 9.7
2018-Jun-16 19:54N 39°43' E 001°25'4 9.1
2018-Jun-16 19:27N 39°47' E 001°28'31 9.3
2018-Jun-16 16:07N 40°11' E 001°54'1 9.7
2018-Jun-16 16:00N 40°12' E 001°54'22210.0
2018-Jun-15 17:41N 43°11' E 004°51'3 9.2
2018-Jun-15 17:20N 43°14' E 004°54'3 9.2
2018-Jun-15 17:00N 43°16' E 004°56'5 9.0
2018-Jun-15 16:30N 43°20' E 004°58'4 8.2
2018-Jun-15 16:01N 43°24' E 004°60'1 2.0
2018-Jun-15 15:30N 43°24' E 005°01'0 0.0
2018-Jun-15 14:56N 43°24' E 005°01'0 0.0
2018-Jun-15 14:29N 43°24' E 005°01'0 0.0
2018-Jun-15 13:56N 43°24' E 005°01'0 0.0
2018-Jun-15 13:29N 43°24' E 005°01'0 0.0
2018-Jun-15 12:59N 43°24' E 005°01'0 0.0
2018-Jun-15 12:29N 43°24' E 005°01'0 0.0
2018-Jun-15 11:59N 43°24' E 005°01'0 0.0
2018-Jun-15 11:29N 43°24' E 005°01'0 0.0
2018-Jun-15 10:59N 43°24' E 005°01'0 0.0
2018-Jun-15 10:29N 43°24' E 005°01'0 0.0
2018-Jun-15 09:59N 43°24' E 005°01'0 0.0
2018-Jun-15 09:29N 43°24' E 005°01'0 0.0
2018-Jun-15 08:59N 43°24' E 005°01'0 0.0
2018-Jun-15 08:29N 43°24' E 005°01'0 0.0
2018-Jun-15 07:59N 43°24' E 005°01'0 0.0
2018-Jun-15 07:29N 43°24' E 005°01'0 0.0
2018-Jun-15 06:59N 43°24' E 005°01'0 0.0
2018-Jun-15 06:20N 43°24' E 005°01'0 0.0
2018-Jun-15 05:59N 43°24' E 005°01'0 0.0
2018-Jun-15 05:29N 43°24' E 005°01'0 0.0
2018-Jun-15 04:56N 43°24' E 005°01'0 0.0
2018-Jun-15 04:29N 43°24' E 005°01'0 0.0
2018-Jun-15 03:59N 43°24' E 005°01'0 0.0
2018-Jun-15 03:29N 43°24' E 005°01'0 0.0
2018-Jun-15 02:59N 43°24' E 005°01'0 0.0
2018-Jun-15 02:29N 43°24' E 005°01'0 0.0
2018-Jun-15 01:59N 43°24' E 005°01'0 0.0
2018-Jun-15 01:26N 43°24' E 005°01'0 0.0
2018-Jun-15 00:59N 43°24' E 005°01'0 0.0
2018-Jun-15 00:29N 43°24' E 005°01'0 0.0
2018-Jun-14 23:59N 43°24' E 005°01'0 0.0
2018-Jun-14 23:29N 43°24' E 005°01'0 0.0
2018-Jun-14 22:59N 43°24' E 005°01'0 0.0
2018-Jun-14 22:29N 43°24' E 005°01'0 0.0
2018-Jun-14 21:53N 43°24' E 005°01'0 0.0
2018-Jun-14 21:26N 43°24' E 005°01'0 0.0
2018-Jun-14 20:58N 43°24' E 005°01'0 0.0
2018-Jun-14 20:25N 43°24' E 005°01'0 0.0
2018-Jun-14 19:58N 43°24' E 005°01'0 0.0
2018-Jun-14 19:28N 43°24' E 005°01'0 0.0
2018-Jun-14 18:58N 43°24' E 005°01'0 0.0
2018-Jun-14 18:28N 43°24' E 005°01'0 0.0
2018-Jun-14 17:58N 43°24' E 005°01'0 0.0
2018-Jun-14 17:28N 43°24' E 005°01'0 0.0
2018-Jun-14 16:58N 43°24' E 005°01'0 0.0
2018-Jun-14 16:28N 43°24' E 005°01'0 0.0
2018-Jun-14 15:55N 43°24' E 005°01'0 0.0
2018-Jun-14 15:28N 43°24' E 005°01'0 0.0
2018-Jun-14 14:58N 43°24' E 005°01'0 0.0
2018-Jun-14 14:25N 43°24' E 005°01'0 0.0
2018-Jun-14 13:58N 43°24' E 005°01'0 0.0
2018-Jun-14 13:25N 43°24' E 005°01'0 0.0
2018-Jun-14 12:58N 43°24' E 005°01'0 0.0
2018-Jun-14 12:25N 43°24' E 005°01'0 0.0
2018-Jun-14 11:58N 43°24' E 005°01'0 0.0
2018-Jun-14 11:28N 43°24' E 005°01'0 0.0
2018-Jun-14 10:55N 43°24' E 005°01'0 0.0
2018-Jun-14 10:28N 43°24' E 005°01'0 0.0
2018-Jun-14 09:58N 43°24' E 005°01'0 0.0
2018-Jun-14 09:28N 43°24' E 005°01'0 0.0
2018-Jun-14 08:58N 43°24' E 005°01'0 0.0
2018-Jun-14 08:25N 43°24' E 005°01'0 0.0
2018-Jun-14 07:55N 43°24' E 005°01'0 0.0
2018-Jun-14 07:28N 43°24' E 005°01'0 0.0
2018-Jun-14 06:58N 43°24' E 005°01'0 0.0
2018-Jun-14 06:28N 43°24' E 005°01'0 0.0
2018-Jun-14 05:58N 43°24' E 005°01'0 0.0
2018-Jun-14 05:28N 43°24' E 005°01'0 0.0
2018-Jun-14 04:58N 43°24' E 005°01'0 0.0
2018-Jun-14 04:25N 43°24' E 005°01'0 0.0
2018-Jun-14 03:52N 43°24' E 005°01'0 0.0
2018-Jun-14 03:28N 43°24' E 005°01'0 0.0
2018-Jun-14 02:58N 43°24' E 005°01'0 0.0
2018-Jun-14 02:28N 43°24' E 005°01'0 0.0
2018-Jun-14 01:58N 43°24' E 005°01'0 0.0
2018-Jun-14 01:28N 43°24' E 005°01'0 0.0
2018-Jun-14 00:58N 43°24' E 005°01'0 0.0
2018-Jun-14 00:28N 43°24' E 005°01'0 0.0
2018-Jun-13 23:58N 43°24' E 005°01'0 0.0
2018-Jun-13 23:28N 43°24' E 005°01'0 0.0
2018-Jun-13 22:58N 43°24' E 005°01'0 0.0
2018-Jun-13 22:28N 43°24' E 005°01'0 0.0
2018-Jun-13 21:52N 43°24' E 005°01'0 0.0
2018-Jun-13 21:28N 43°24' E 005°01'0 0.0
2018-Jun-13 20:58N 43°24' E 005°01'0 0.0
2018-Jun-13 20:28N 43°24' E 005°01'0 0.0
2018-Jun-13 19:55N 43°24' E 005°01'0 0.0
2018-Jun-13 19:28N 43°24' E 005°01'0 0.0
2018-Jun-13 18:58N 43°24' E 005°01'0 0.0
2018-Jun-13 18:28N 43°24' E 005°01'0 0.0
2018-Jun-13 17:58N 43°24' E 005°01'0 0.0
2018-Jun-13 17:22N 43°24' E 005°01'0 0.0
2018-Jun-13 16:58N 43°24' E 005°01'0 0.0
2018-Jun-13 16:28N 43°24' E 005°01'0 0.0
2018-Jun-13 15:55N 43°24' E 005°01'0 0.0
2018-Jun-13 15:28N 43°24' E 005°01'0 0.0
2018-Jun-13 14:52N 43°24' E 005°01'0 0.0
2018-Jun-13 14:28N 43°24' E 005°01'0 0.0
2018-Jun-13 13:58N 43°24' E 005°01'0 0.0
2018-Jun-13 13:28N 43°24' E 005°01'0 0.0
2018-Jun-13 12:58N 43°24' E 005°01'0 0.0
2018-Jun-13 12:25N 43°24' E 005°01'0 0.0
2018-Jun-13 11:58N 43°24' E 005°01'0 0.0
2018-Jun-13 11:28N 43°24' E 005°01'0 0.0
2018-Jun-13 11:01N 43°24' E 005°01'0 0.0
2018-Jun-13 10:31N 43°24' E 005°01'0 0.0
2018-Jun-13 10:00N 43°24' E 005°01'0 0.0
2018-Jun-13 09:30N 43°24' E 005°01'0 0.0
2018-Jun-13 09:00N 43°24' E 005°01'0 0.0
2018-Jun-13 08:27N 43°24' E 005°01'0 0.0
2018-Jun-13 08:00N 43°24' E 005°01'0 0.0
2018-Jun-13 07:30N 43°24' E 005°01'0 0.0
2018-Jun-13 07:00N 43°24' E 005°01'0 0.0
2018-Jun-13 06:30N 43°24' E 005°01'0 0.0
2018-Jun-13 05:57N 43°24' E 005°01'0 0.0
2018-Jun-13 05:30N 43°24' E 005°01'0 0.0
2018-Jun-13 05:00N 43°24' E 005°01'0 0.0
2018-Jun-13 04:30N 43°24' E 005°01'0 0.0
2018-Jun-13 04:00N 43°24' E 005°01'1 2.0
2018-Jun-13 03:30N 43°24' E 004°60'4 7.2
2018-Jun-13 03:01N 43°21' E 004°59'5 9.0
2018-Jun-13 02:30N 43°16' E 005°00'6 9.2
2018-Jun-13 01:52N 43°10' E 005°01'15210.5
2018-Jun-12 11:26N 41°24' E 002°35'511.2
2018-Jun-12 11:00N 41°21' E 002°30'510.9
2018-Jun-12 10:31N 41°17' E 002°25'510.8
2018-Jun-12 10:01N 41°14' E 002°19'510.6
2018-Jun-12 09:31N 41°10' E 002°14'510.6
2018-Jun-12 09:00N 41°07' E 002°09'710.5
2018-Jun-12 08:23N 41°02' E 002°03'410.5
2018-Jun-12 07:58N 40°59' E 001°58'510.7
2018-Jun-12 07:29N 40°56' E 001°53'  

Dump ship's entire track history